createdAt,value
2022-11-10T00:00:10.271Z,2.5
2022-11-10T00:01:18.617Z,2.5
2022-11-10T00:02:27.157Z,2.7
2022-11-10T00:03:35.514Z,2.7
2022-11-10T00:04:43.857Z,2.7
2022-11-10T00:05:52.423Z,3.3
2022-11-10T00:07:01.570Z,3.3
2022-11-10T00:08:09.855Z,3.3
2022-11-10T00:09:18.431Z,3
2022-11-10T00:10:26.754Z,3
2022-11-10T00:11:35.098Z,3
2022-11-10T00:12:43.645Z,2.9
2022-11-10T00:13:51.988Z,2.9
2022-11-10T00:15:00.332Z,2.9
2022-11-10T00:16:08.882Z,3
2022-11-10T00:17:17.218Z,3
2022-11-10T00:18:25.555Z,3
2022-11-10T00:19:34.117Z,2.8
2022-11-10T00:20:42.447Z,2.8
2022-11-10T00:21:50.860Z,2.8
2022-11-10T00:22:59.370Z,3.1
2022-11-10T00:24:07.713Z,3.1
2022-11-10T00:25:16.052Z,3.1
2022-11-10T00:26:24.609Z,3.1
2022-11-10T00:27:32.946Z,3.1
2022-11-10T00:28:41.289Z,3.1
2022-11-10T00:29:49.829Z,2.6
2022-11-10T00:30:58.168Z,2.6
2022-11-10T00:32:06.502Z,2.6
2022-11-10T00:33:15.056Z,2.9
2022-11-10T00:34:23.400Z,2.9
2022-11-10T00:35:31.738Z,2.9
2022-11-10T00:36:40.277Z,3
2022-11-10T00:37:48.634Z,3
2022-11-10T00:38:56.962Z,3
2022-11-10T00:40:05.499Z,2.7
2022-11-10T00:41:13.834Z,2.7
2022-11-10T00:42:22.163Z,2.7
2022-11-10T00:43:30.958Z,2.6
2022-11-10T00:44:39.057Z,2.6
2022-11-10T00:45:47.389Z,2.6
2022-11-10T00:46:55.937Z,2.5
2022-11-10T00:48:04.293Z,2.5
2022-11-10T00:49:12.624Z,2.5
2022-11-10T00:50:21.168Z,2.9
2022-11-10T00:51:29.514Z,2.9
2022-11-10T00:52:37.852Z,2.9
2022-11-10T00:53:46.426Z,2.5
2022-11-10T00:54:54.726Z,2.5
2022-11-10T00:56:03.068Z,2.5
2022-11-10T00:57:11.614Z,2.9
2022-11-10T00:58:19.953Z,2.9
2022-11-10T00:59:28.290Z,2.9
2022-11-10T01:00:36.829Z,3
2022-11-10T01:01:45.165Z,3
2022-11-10T01:02:53.509Z,3
2022-11-10T01:04:02.051Z,3.1
2022-11-10T01:05:10.399Z,3.1
2022-11-10T01:06:18.728Z,3.1
2022-11-10T01:07:27.284Z,2.4
2022-11-10T01:08:35.619Z,2.4
2022-11-10T01:09:43.981Z,2.4
2022-11-10T01:10:52.490Z,2.1
2022-11-10T01:12:00.829Z,2.1
2022-11-10T01:13:09.170Z,2.1
2022-11-10T01:14:17.713Z,1.9
2022-11-10T01:15:27.705Z,1.9
2022-11-10T01:16:34.391Z,1.9
2022-11-10T01:17:42.917Z,1.8
2022-11-10T01:18:51.262Z,1.8
2022-11-10T01:19:59.600Z,1.8
2022-11-10T01:21:08.163Z,1.8
2022-11-10T01:22:16.535Z,1.8
2022-11-10T01:23:25.190Z,1.8
2022-11-10T01:24:33.452Z,2.3
2022-11-10T01:25:41.800Z,2.3
2022-11-10T01:26:50.122Z,2.3
2022-11-10T01:27:58.678Z,1.8
2022-11-10T01:29:06.998Z,1.8
2022-11-10T01:30:15.345Z,1.8
2022-11-10T01:31:23.887Z,2
2022-11-10T01:32:32.228Z,2
2022-11-10T01:33:40.570Z,2
2022-11-10T01:34:49.109Z,3
2022-11-10T01:35:57.539Z,3
2022-11-10T01:37:05.866Z,3
2022-11-10T01:38:14.434Z,3.7
2022-11-10T01:39:22.752Z,3.7
2022-11-10T01:40:31.153Z,3.7
2022-11-10T01:41:39.659Z,4
2022-11-10T01:42:47.993Z,4
2022-11-10T01:43:56.325Z,4
2022-11-10T01:45:04.941Z,5.2
2022-11-10T01:46:13.279Z,5.2
2022-11-10T01:47:21.609Z,5.2
2022-11-10T01:48:30.158Z,4.9
2022-11-10T01:49:38.500Z,4.9
2022-11-10T01:50:46.839Z,4.9
2022-11-10T01:51:55.379Z,2.6
2022-11-10T01:53:03.743Z,2.6
2022-11-10T01:54:12.110Z,2.6
2022-11-10T01:55:20.644Z,3.1
2022-11-10T01:56:28.997Z,3.1
2022-11-10T01:57:37.377Z,3.1
2022-11-10T01:58:45.929Z,2.5
2022-11-10T01:59:54.244Z,2.5
2022-11-10T02:01:02.650Z,2.5
2022-11-10T02:02:11.124Z,2.1
2022-11-10T02:03:19.796Z,2.1
2022-11-10T02:04:27.805Z,2.1
2022-11-10T02:05:36.339Z,2.5
2022-11-10T02:06:44.717Z,2.5
2022-11-10T02:07:53.016Z,2.5
2022-11-10T02:09:01.551Z,2.5
2022-11-10T02:10:09.890Z,2.5
2022-11-10T02:11:18.235Z,2.5
2022-11-10T02:12:26.766Z,3
2022-11-10T02:13:35.130Z,3
2022-11-10T02:14:43.444Z,3
2022-11-10T02:15:51.982Z,2.4
2022-11-10T02:17:00.323Z,2.4
2022-11-10T02:18:08.661Z,2.4
2022-11-10T02:19:17.204Z,2.5
2022-11-10T02:20:25.544Z,2.5
2022-11-10T02:21:33.922Z,2.5
2022-11-10T02:22:42.480Z,2.3
2022-11-10T02:23:50.804Z,2.3
2022-11-10T02:24:59.196Z,2.3
2022-11-10T02:26:07.730Z,2.7
2022-11-10T02:27:16.072Z,2.7
2022-11-10T02:28:24.427Z,2.7
2022-11-10T02:29:32.983Z,2.7
2022-11-10T02:30:41.296Z,2.7
2022-11-10T02:31:49.631Z,2.7
2022-11-10T02:32:58.189Z,3.6
2022-11-10T02:34:06.533Z,3.6
2022-11-10T02:35:14.864Z,3.6
2022-11-10T02:36:23.412Z,3.4
2022-11-10T02:37:31.740Z,3.4
2022-11-10T02:38:40.101Z,3.4
2022-11-10T02:39:48.651Z,2.9
2022-11-10T02:40:56.981Z,2.9
2022-11-10T02:42:05.314Z,2.9
2022-11-10T02:43:13.866Z,2.8
2022-11-10T02:44:22.195Z,2.8
2022-11-10T02:45:30.548Z,2.8
2022-11-10T02:46:39.076Z,3
2022-11-10T02:47:47.422Z,3
2022-11-10T02:48:55.754Z,3
2022-11-10T02:50:04.303Z,3.5
2022-11-10T02:51:12.638Z,3.5
2022-11-10T02:52:20.990Z,3.5
2022-11-10T02:53:29.533Z,3.5
2022-11-10T02:54:37.869Z,3.5
2022-11-10T02:55:46.204Z,3.5
2022-11-10T02:56:54.745Z,3.9
2022-11-10T02:58:03.110Z,3.9
2022-11-10T02:59:11.432Z,3.9
2022-11-10T03:00:19.978Z,2.7
2022-11-10T03:01:28.373Z,2.7
2022-11-10T03:02:36.644Z,2.7
2022-11-10T03:03:45.190Z,2.8
2022-11-10T03:04:53.526Z,2.8
2022-11-10T03:06:01.893Z,2.8
2022-11-10T03:07:10.533Z,2.7
2022-11-10T03:08:18.829Z,2.7
2022-11-10T03:09:27.174Z,2.7
2022-11-10T03:10:35.716Z,2.8
2022-11-10T03:11:44.056Z,2.8
2022-11-10T03:12:52.405Z,2.8
2022-11-10T03:14:02.434Z,2.5
2022-11-10T03:15:09.271Z,2.5
2022-11-10T03:16:17.627Z,2.5
2022-11-10T03:17:26.233Z,3.3
2022-11-10T03:18:34.606Z,3.3
2022-11-10T03:19:42.945Z,3.3
2022-11-10T03:20:51.514Z,3
2022-11-10T03:21:59.862Z,3
2022-11-10T03:23:08.217Z,3
2022-11-10T03:24:16.799Z,3.1
2022-11-10T03:25:25.135Z,3.1
2022-11-10T03:26:33.467Z,3.1
2022-11-10T03:27:42.048Z,3.6
2022-11-10T03:28:50.407Z,3.6
2022-11-10T03:29:58.758Z,3.6
2022-11-10T03:31:07.301Z,3
2022-11-10T03:32:15.634Z,3
2022-11-10T03:33:24.427Z,3
2022-11-10T03:34:32.570Z,3.3
2022-11-10T03:35:40.919Z,3.3
2022-11-10T03:36:49.264Z,3.3
2022-11-10T03:37:57.852Z,4.2
2022-11-10T03:39:06.193Z,4.2
2022-11-10T03:40:14.534Z,4.2
2022-11-10T03:41:23.080Z,3.8
2022-11-10T03:42:31.443Z,3.8
2022-11-10T03:43:39.780Z,3.8
2022-11-10T03:44:48.330Z,4.2
2022-11-10T03:45:56.691Z,4.2
2022-11-10T03:47:05.030Z,4.2
2022-11-10T03:48:13.610Z,3.6
2022-11-10T03:49:21.997Z,3.6
2022-11-10T03:50:30.377Z,3.6
2022-11-10T03:51:38.887Z,3.8
2022-11-10T03:52:47.240Z,3.8
2022-11-10T03:53:55.570Z,3.8
2022-11-10T03:55:04.144Z,3.8
2022-11-10T03:56:12.498Z,3.8
2022-11-10T03:57:20.834Z,3.8
2022-11-10T03:58:29.404Z,4.1
2022-11-10T03:59:37.790Z,4.1
2022-11-10T04:00:46.142Z,4.1
2022-11-10T04:01:54.755Z,3.7
2022-11-10T04:03:03.068Z,3.7
2022-11-10T04:04:11.446Z,3.7
2022-11-10T04:05:20.020Z,3.7
2022-11-10T04:06:28.332Z,3.7
2022-11-10T04:07:36.665Z,3.7
2022-11-10T04:08:45.216Z,4.1
2022-11-10T04:09:53.547Z,4.1
2022-11-10T04:11:01.922Z,4.1
2022-11-10T04:12:10.487Z,4.1
2022-11-10T04:13:19.049Z,4.1
2022-11-10T04:14:27.185Z,4.1
2022-11-10T04:15:35.745Z,3.6
2022-11-10T04:16:44.122Z,3.6
2022-11-10T04:17:52.467Z,3.6
2022-11-10T04:19:01.007Z,3.4
2022-11-10T04:20:09.351Z,3.4
2022-11-10T04:21:17.708Z,3.4
2022-11-10T04:22:26.263Z,3.6
2022-11-10T04:23:34.599Z,3.6
2022-11-10T04:24:42.955Z,3.6
2022-11-10T04:25:51.518Z,3.7
2022-11-10T04:26:59.881Z,3.7
2022-11-10T04:28:08.225Z,3.7
2022-11-10T04:29:16.770Z,5.3
2022-11-10T04:30:25.104Z,5.3
2022-11-10T04:31:33.437Z,5.3
2022-11-10T04:32:41.996Z,3.9
2022-11-10T04:33:50.331Z,3.9
2022-11-10T04:34:58.660Z,3.9
2022-11-10T04:36:07.200Z,6.4
2022-11-10T04:37:15.573Z,6.4
2022-11-10T04:38:23.867Z,6.4
2022-11-10T04:39:32.421Z,10.1
2022-11-10T04:40:40.753Z,10.1
2022-11-10T04:41:49.129Z,10.1
2022-11-10T04:42:57.736Z,9.5
2022-11-10T04:44:06.061Z,9.5
2022-11-10T04:45:14.403Z,9.5
2022-11-10T04:46:22.950Z,6.2
2022-11-10T04:47:31.283Z,6.2
2022-11-10T04:48:39.658Z,6.2
2022-11-10T04:49:48.231Z,5.4
2022-11-10T04:50:56.596Z,5.4
2022-11-10T04:52:04.995Z,5.4
2022-11-10T04:53:13.550Z,8.2
2022-11-10T04:54:21.841Z,8.2
2022-11-10T04:55:30.204Z,8.2
2022-11-10T04:56:38.768Z,9.9
2022-11-10T04:57:47.110Z,9.9
2022-11-10T04:58:55.488Z,9.9
2022-11-10T05:00:04.025Z,6.6
2022-11-10T05:01:12.467Z,6.6
2022-11-10T05:02:20.743Z,6.6
2022-11-10T05:03:29.293Z,7.5
2022-11-10T05:04:37.649Z,7.5
2022-11-10T05:05:45.985Z,7.5
2022-11-10T05:06:54.607Z,5.6
2022-11-10T05:08:02.886Z,5.6
2022-11-10T05:09:11.258Z,5.6
2022-11-10T05:10:19.804Z,4.2
2022-11-10T05:11:28.144Z,4.2
2022-11-10T05:12:36.490Z,4.2
2022-11-10T05:13:45.052Z,3.7
2022-11-10T05:14:53.388Z,3.7
2022-11-10T05:16:01.743Z,3.7
2022-11-10T05:17:10.293Z,4.2
2022-11-10T05:18:18.660Z,4.2
2022-11-10T05:19:26.979Z,4.2
2022-11-10T05:20:35.549Z,3.7
2022-11-10T05:21:43.898Z,3.7
2022-11-10T05:22:52.246Z,3.7
2022-11-10T05:24:00.785Z,3.8
2022-11-10T05:25:09.185Z,3.8
2022-11-10T05:26:17.525Z,3.8
2022-11-10T05:27:26.076Z,4.1
2022-11-10T05:28:34.435Z,4.1
2022-11-10T05:29:42.816Z,4.1
2022-11-10T05:30:51.363Z,3.8
2022-11-10T05:31:59.699Z,3.8
2022-11-10T05:33:08.041Z,3.8
2022-11-10T05:34:16.614Z,3
2022-11-10T05:35:24.938Z,3
2022-11-10T05:36:33.312Z,3
2022-11-10T05:37:41.852Z,3
2022-11-10T05:38:50.205Z,3
2022-11-10T05:39:58.551Z,3
2022-11-10T05:41:07.133Z,3
2022-11-10T05:42:15.445Z,3
2022-11-10T05:43:24.030Z,3
2022-11-10T05:44:32.328Z,3.9
2022-11-10T05:45:40.665Z,3.9
2022-11-10T05:46:49.038Z,3.9
2022-11-10T05:47:57.576Z,3.7
2022-11-10T05:49:05.960Z,3.7
2022-11-10T05:50:14.303Z,3.7
2022-11-10T05:51:22.860Z,3.9
2022-11-10T05:52:31.196Z,3.9
2022-11-10T05:53:39.532Z,3.9
2022-11-10T05:54:48.071Z,5.2
2022-11-10T05:55:56.413Z,5.2
2022-11-10T05:57:04.761Z,5.2
2022-11-10T05:58:13.285Z,5.9
2022-11-10T05:59:21.621Z,5.9
2022-11-10T06:00:29.961Z,5.9
2022-11-10T06:01:38.504Z,6.2
2022-11-10T06:02:46.843Z,6.2
2022-11-10T06:03:55.280Z,6.2
2022-11-10T06:05:03.774Z,5.3
2022-11-10T06:06:12.113Z,5.3
2022-11-10T06:07:20.469Z,5.3
2022-11-10T06:08:29.018Z,7.9
2022-11-10T06:09:37.351Z,7.9
2022-11-10T06:10:45.684Z,7.9
2022-11-10T06:11:54.240Z,8.9
2022-11-10T06:13:02.586Z,8.9
2022-11-10T06:14:10.895Z,8.9
2022-11-10T06:15:19.466Z,4.7
2022-11-10T06:16:27.836Z,4.7
2022-11-10T06:17:36.167Z,4.7
2022-11-10T06:18:44.742Z,5.8
2022-11-10T06:19:53.082Z,5.8
2022-11-10T06:21:01.474Z,5.8
2022-11-10T06:22:10.045Z,6.7
2022-11-10T06:23:18.366Z,6.7
2022-11-10T06:24:26.741Z,6.7
2022-11-10T06:25:35.296Z,5.3
2022-11-10T06:26:43.674Z,5.3
2022-11-10T06:27:51.988Z,5.3
2022-11-10T06:29:00.565Z,5
2022-11-10T06:30:08.902Z,5
2022-11-10T06:31:17.286Z,5
2022-11-10T06:32:25.842Z,5.3
2022-11-10T06:33:34.187Z,5.3
2022-11-10T06:34:42.541Z,5.3
2022-11-10T06:35:51.093Z,4.3
2022-11-10T06:36:59.433Z,4.3
2022-11-10T06:38:07.767Z,4.3
2022-11-10T06:39:16.312Z,5.1
2022-11-10T06:40:24.658Z,5.1
2022-11-10T06:41:33.009Z,5.1
2022-11-10T06:42:41.554Z,4.6
2022-11-10T06:43:49.886Z,4.6
2022-11-10T06:44:58.265Z,4.6
2022-11-10T06:46:06.794Z,4.5
2022-11-10T06:47:15.150Z,4.5
2022-11-10T06:48:23.514Z,4.5
2022-11-10T06:49:32.054Z,3.7
2022-11-10T06:50:40.395Z,3.7
2022-11-10T06:51:48.764Z,3.7
2022-11-10T06:52:57.301Z,4.7
2022-11-10T06:54:05.682Z,4.7
2022-11-10T06:55:14.003Z,4.7
2022-11-10T06:56:22.559Z,4.3
2022-11-10T06:57:30.921Z,4.3
2022-11-10T06:58:39.290Z,4.3
2022-11-10T06:59:47.882Z,4.1
2022-11-10T07:00:56.292Z,4.1
2022-11-10T07:02:04.587Z,4.1
2022-11-10T07:03:13.151Z,4.4
2022-11-10T07:04:21.488Z,4.4
2022-11-10T07:05:29.858Z,4.4
2022-11-10T07:06:38.520Z,4.6
2022-11-10T07:07:46.820Z,4.6
2022-11-10T07:08:55.167Z,4.6
2022-11-10T07:10:06.912Z,4.2
2022-11-10T07:11:12.095Z,4.2
2022-11-10T07:12:20.426Z,4.2
2022-11-10T07:13:29.032Z,4.6
2022-11-10T07:14:37.401Z,4.6
2022-11-10T07:15:45.734Z,4.6
2022-11-10T07:16:54.322Z,4.1
2022-11-10T07:18:02.674Z,4.1
2022-11-10T07:19:11.004Z,4.1
2022-11-10T07:20:19.576Z,3.7
2022-11-10T07:21:27.926Z,3.7
2022-11-10T07:22:36.262Z,3.7
2022-11-10T07:23:44.823Z,4.2
2022-11-10T07:24:53.185Z,4.2
2022-11-10T07:26:01.530Z,4.2
2022-11-10T07:27:10.101Z,3.6
2022-11-10T07:28:18.470Z,3.6
2022-11-10T07:29:26.811Z,3.6
2022-11-10T07:30:35.380Z,3.9
2022-11-10T07:31:43.709Z,3.9
2022-11-10T07:32:52.096Z,3.9
2022-11-10T07:34:00.610Z,4
2022-11-10T07:35:08.955Z,4
2022-11-10T07:36:17.297Z,4
2022-11-10T07:37:25.874Z,4.5
2022-11-10T07:38:34.221Z,4.5
2022-11-10T07:39:42.566Z,4.5
2022-11-10T07:40:51.127Z,6.3
2022-11-10T07:41:59.473Z,6.3
2022-11-10T07:43:07.821Z,6.3
2022-11-10T07:44:16.353Z,4.8
2022-11-10T07:45:24.725Z,4.8
2022-11-10T07:46:33.048Z,4.8
2022-11-10T07:47:41.606Z,4.7
2022-11-10T07:48:49.992Z,4.7
2022-11-10T07:49:58.279Z,4.7
2022-11-10T07:51:06.834Z,4.4
2022-11-10T07:52:15.191Z,4.4
2022-11-10T07:53:23.739Z,4.4
2022-11-10T07:54:32.111Z,4.1
2022-11-10T07:55:40.453Z,4.1
2022-11-10T07:56:48.795Z,4.1
2022-11-10T07:57:57.354Z,4.1
2022-11-10T07:59:05.690Z,4.1
2022-11-10T08:00:14.052Z,4.1
2022-11-10T08:01:22.632Z,4.5
2022-11-10T08:02:30.947Z,4.5
2022-11-10T08:03:39.320Z,4.5
2022-11-10T08:04:47.877Z,4.1
2022-11-10T08:05:56.202Z,4.1
2022-11-10T08:07:04.639Z,4.1
2022-11-10T08:08:13.087Z,4.8
2022-11-10T08:09:21.443Z,4.8
2022-11-10T08:10:29.826Z,4.8
2022-11-10T08:11:38.369Z,4.1
2022-11-10T08:12:46.717Z,4.1
2022-11-10T08:13:55.069Z,4.1
2022-11-10T08:15:03.612Z,3.7
2022-11-10T08:16:11.982Z,3.7
2022-11-10T08:17:20.321Z,3.7
2022-11-10T08:18:34.025Z,3.9
2022-11-10T08:19:37.299Z,3.9
2022-11-10T08:20:45.673Z,3.9
2022-11-10T08:21:54.224Z,3.4
2022-11-10T08:23:02.565Z,3.4
2022-11-10T08:24:10.903Z,3.4
2022-11-10T08:25:19.473Z,3.4
2022-11-10T08:26:27.834Z,3.4
2022-11-10T08:27:36.171Z,3.4
2022-11-10T08:28:44.727Z,3.7
2022-11-10T08:29:53.062Z,3.7
2022-11-10T08:31:05.281Z,3.7
2022-11-10T08:32:09.962Z,3.8
2022-11-10T08:33:18.324Z,3.8
2022-11-10T08:34:26.664Z,3.8
2022-11-10T08:35:35.230Z,4.7
2022-11-10T08:36:43.610Z,4.7
2022-11-10T08:37:51.922Z,4.7
2022-11-10T08:39:00.477Z,3.8
2022-11-10T08:40:08.826Z,3.8
2022-11-10T08:41:17.178Z,3.8
2022-11-10T08:42:25.752Z,3.8
2022-11-10T08:43:34.084Z,3.8
2022-11-10T08:44:42.431Z,3.8
2022-11-10T08:45:50.978Z,3.6
2022-11-10T08:46:59.312Z,3.6
2022-11-10T08:48:07.672Z,3.6
2022-11-10T08:49:16.214Z,3.6
2022-11-10T08:50:24.614Z,3.6
2022-11-10T08:51:37.866Z,3.6
2022-11-10T08:52:41.499Z,3.4
2022-11-10T08:53:49.818Z,3.4
2022-11-10T08:54:58.180Z,3.4
2022-11-10T08:56:06.728Z,3.7
2022-11-10T08:57:15.078Z,3.7
2022-11-10T08:58:23.431Z,3.7
2022-11-10T08:59:31.982Z,4.1
2022-11-10T09:00:40.348Z,4.1
2022-11-10T09:01:48.686Z,4.1
2022-11-10T09:02:57.251Z,3.7
2022-11-10T09:04:05.585Z,3.7
2022-11-10T09:05:13.984Z,3.7
2022-11-10T09:06:22.584Z,3.9
2022-11-10T09:07:30.899Z,3.9
2022-11-10T09:08:39.284Z,3.9
2022-11-10T09:10:01.425Z,4.1
2022-11-10T09:10:56.145Z,4.1
2022-11-10T09:12:04.493Z,4.1
2022-11-10T09:13:13.057Z,4.4
2022-11-10T09:14:21.401Z,4.4
2022-11-10T09:15:29.774Z,4.4
2022-11-10T09:16:38.305Z,4.2
2022-11-10T09:17:46.661Z,4.2
2022-11-10T09:18:55.000Z,4.2
2022-11-10T09:20:03.629Z,3.6
2022-11-10T09:21:11.947Z,3.6
2022-11-10T09:22:20.265Z,3.6
2022-11-10T09:23:28.826Z,3.3
2022-11-10T09:24:37.230Z,3.3
2022-11-10T09:25:45.523Z,3.3
2022-11-10T09:26:54.087Z,3.6
2022-11-10T09:28:02.428Z,3.6
2022-11-10T09:29:10.809Z,3.6
2022-11-10T09:30:19.376Z,3.7
2022-11-10T09:31:27.731Z,3.7
2022-11-10T09:32:36.069Z,3.7
2022-11-10T09:33:44.647Z,3.9
2022-11-10T09:34:53.271Z,3.9
2022-11-10T09:36:01.317Z,3.9
2022-11-10T09:37:09.900Z,3.5
2022-11-10T09:38:18.251Z,3.5
2022-11-10T09:39:26.625Z,3.5
2022-11-10T09:40:35.189Z,3.8
2022-11-10T09:41:43.520Z,3.8
2022-11-10T09:42:51.863Z,3.8
2022-11-10T09:44:00.420Z,3.8
2022-11-10T09:45:08.762Z,3.8
2022-11-10T09:46:17.125Z,3.8
2022-11-10T09:48:34.003Z,3.5
2022-11-10T09:49:42.358Z,3.5
2022-11-10T09:50:50.905Z,3.6
2022-11-10T09:51:59.239Z,3.6
2022-11-10T09:53:07.575Z,3.6
2022-11-10T09:54:16.149Z,4.1
2022-11-10T09:55:24.481Z,4.1
2022-11-10T09:56:32.846Z,4.1
2022-11-10T09:57:44.792Z,3.8
2022-11-10T09:58:49.727Z,3.8
2022-11-10T09:59:58.067Z,3.8
2022-11-10T10:01:06.643Z,4
2022-11-10T10:02:14.975Z,4
2022-11-10T10:03:23.307Z,4
2022-11-10T10:04:31.866Z,3.6
2022-11-10T10:05:40.207Z,3.6
2022-11-10T10:07:05.295Z,3.6
2022-11-10T10:07:57.192Z,3.7
2022-11-10T10:09:05.462Z,3.7
2022-11-10T10:10:17.271Z,3.7
2022-11-10T10:11:22.376Z,3.2
2022-11-10T10:12:30.730Z,3.2
2022-11-10T10:13:39.041Z,3.2
2022-11-10T10:14:47.612Z,3.3
2022-11-10T10:15:55.948Z,3.3
2022-11-10T10:17:04.292Z,3.3
2022-11-10T10:18:12.848Z,3.4
2022-11-10T10:19:21.191Z,3.4
2022-11-10T10:20:29.544Z,3.4
2022-11-10T10:21:38.109Z,3.5
2022-11-10T10:22:46.428Z,3.5
2022-11-10T10:24:09.213Z,3.5
2022-11-10T10:25:03.336Z,3.5
2022-11-10T10:26:11.680Z,3.5
2022-11-10T10:27:20.015Z,3.5
2022-11-10T10:28:28.606Z,3.8
2022-11-10T10:29:37.551Z,3.8
2022-11-10T10:30:45.290Z,3.8
2022-11-10T10:31:53.844Z,3.7
2022-11-10T10:33:02.200Z,3.7
2022-11-10T10:34:10.575Z,3.7
2022-11-10T10:35:19.126Z,3.5
2022-11-10T10:36:27.478Z,3.5
2022-11-10T10:37:35.829Z,3.5
2022-11-10T10:38:44.407Z,3.8
2022-11-10T10:39:52.786Z,3.8
2022-11-10T10:41:01.130Z,3.8
2022-11-10T10:42:09.700Z,3.6
2022-11-10T10:43:18.060Z,3.6
2022-11-10T10:44:26.431Z,3.6
2022-11-10T10:45:35.004Z,3.6
2022-11-10T10:46:43.333Z,3.6
2022-11-10T10:47:51.690Z,3.6
2022-11-10T10:49:22.469Z,3.7
2022-11-10T10:50:08.596Z,3.7
2022-11-10T10:51:16.948Z,3.7
2022-11-10T10:52:25.520Z,3.4
2022-11-10T10:53:33.846Z,3.4
2022-11-10T10:54:42.194Z,3.4
2022-11-10T10:55:50.793Z,3.5
2022-11-10T10:56:59.134Z,3.5
2022-11-10T10:58:07.492Z,3.5
2022-11-10T10:59:16.041Z,3.4
2022-11-10T11:00:24.401Z,3.4
2022-11-10T11:01:32.779Z,3.4
2022-11-10T11:02:41.309Z,3.6
2022-11-10T11:03:49.702Z,3.6
2022-11-10T11:04:58.016Z,3.6
2022-11-10T11:06:06.577Z,3.5
2022-11-10T11:07:14.995Z,3.5
2022-11-10T11:08:23.605Z,3.5
2022-11-10T11:09:31.875Z,4.1
2022-11-10T11:10:40.229Z,4.1
2022-11-10T11:11:48.577Z,4.1
2022-11-10T11:12:57.612Z,3.5
2022-11-10T11:14:05.976Z,3.5
2022-11-10T11:15:14.324Z,3.5
2022-11-10T11:16:22.915Z,5.4
2022-11-10T11:17:31.266Z,5.4
2022-11-10T11:18:39.582Z,5.4
2022-11-10T11:19:48.142Z,3.6
2022-11-10T11:20:56.501Z,3.6
2022-11-10T11:22:04.840Z,3.6
2022-11-10T11:23:13.435Z,3.8
2022-11-10T11:24:21.781Z,3.8
2022-11-10T11:25:30.194Z,3.8
2022-11-10T11:26:38.801Z,3.4
2022-11-10T11:27:47.114Z,3.4
2022-11-10T11:28:55.456Z,3.4
2022-11-10T11:30:04.022Z,3.6
2022-11-10T11:31:12.389Z,3.6
2022-11-10T11:32:20.757Z,3.6
2022-11-10T11:33:29.327Z,4.2
2022-11-10T11:34:37.663Z,4.2
2022-11-10T11:35:46.012Z,4.2
2022-11-10T11:36:54.561Z,3.6
2022-11-10T11:38:02.946Z,3.6
2022-11-10T11:39:11.290Z,3.6
2022-11-10T11:40:19.890Z,3.6
2022-11-10T11:41:28.196Z,3.6
2022-11-10T11:42:36.562Z,3.6
2022-11-10T11:43:45.144Z,3.9
2022-11-10T11:44:53.484Z,3.9
2022-11-10T11:46:01.816Z,3.9
2022-11-10T11:47:10.368Z,3.6
2022-11-10T11:48:18.753Z,3.6
2022-11-10T11:49:27.080Z,3.6
2022-11-10T11:50:35.668Z,3.3
2022-11-10T11:51:44.019Z,3.3
2022-11-10T11:52:52.379Z,3.3
2022-11-10T11:54:00.920Z,3.5
2022-11-10T11:55:09.260Z,3.5
2022-11-10T11:56:17.603Z,3.5
2022-11-10T11:57:26.155Z,4.1
2022-11-10T11:58:34.530Z,4.1
2022-11-10T11:59:42.862Z,4.1
2022-11-10T12:00:51.433Z,3.6
2022-11-10T12:01:59.828Z,3.6
2022-11-10T12:03:08.122Z,3.6
2022-11-10T12:04:16.754Z,3.3
2022-11-10T12:05:25.076Z,3.3
2022-11-10T12:06:33.505Z,3.3
2022-11-10T12:07:42.001Z,4
2022-11-10T12:08:50.351Z,4
2022-11-10T12:09:58.723Z,4
2022-11-10T12:11:07.272Z,4.8
2022-11-10T12:12:15.613Z,4.8
2022-11-10T12:13:23.947Z,4.8
2022-11-10T12:14:32.496Z,4.6
2022-11-10T12:15:40.833Z,4.6
2022-11-10T12:16:49.161Z,4.6
2022-11-10T12:17:57.722Z,5.3
2022-11-10T12:19:06.902Z,5.3
2022-11-10T12:20:15.273Z,5.3
2022-11-10T12:21:23.791Z,5
2022-11-10T12:22:32.198Z,5
2022-11-10T12:23:40.576Z,5
2022-11-10T12:24:49.104Z,5.3
2022-11-10T12:25:57.448Z,5.3
2022-11-10T12:27:05.805Z,5.3
2022-11-10T12:28:14.348Z,5.6
2022-11-10T12:29:22.694Z,5.6
2022-11-10T12:30:31.022Z,5.6
2022-11-10T12:31:39.569Z,5.2
2022-11-10T12:32:47.916Z,5.2
2022-11-10T12:33:56.263Z,5.2
2022-11-10T12:35:04.810Z,5.1
2022-11-10T12:36:13.163Z,5.1
2022-11-10T12:37:26.625Z,5.1
2022-11-10T12:38:30.033Z,5.5
2022-11-10T12:39:38.365Z,5.5
2022-11-10T12:40:46.715Z,5.5
2022-11-10T12:41:55.278Z,3.9
2022-11-10T12:43:03.648Z,3.9
2022-11-10T12:44:11.975Z,3.9
2022-11-10T12:45:20.537Z,4.6
2022-11-10T12:46:28.871Z,4.6
2022-11-10T12:47:37.244Z,4.6
2022-11-10T12:48:45.807Z,3.6
2022-11-10T12:49:54.185Z,3.6
2022-11-10T12:51:02.538Z,3.6
2022-11-10T12:52:11.118Z,3.5
2022-11-10T12:53:19.487Z,3.5
2022-11-10T12:54:27.824Z,3.5
2022-11-10T12:55:36.368Z,3.3
2022-11-10T12:56:44.772Z,3.3
2022-11-10T12:57:53.116Z,3.3
2022-11-10T12:59:01.657Z,4
2022-11-10T13:00:12.854Z,4
2022-11-10T13:01:18.383Z,4
2022-11-10T13:02:26.934Z,3.7
2022-11-10T13:03:35.265Z,3.7
2022-11-10T13:04:43.606Z,3.7
2022-11-10T13:05:52.160Z,3.4
2022-11-10T13:07:00.585Z,3.4
2022-11-10T13:08:08.927Z,3.4
2022-11-10T13:09:17.438Z,3.5
2022-11-10T13:10:25.775Z,3.5
2022-11-10T13:11:34.123Z,3.5
2022-11-10T13:12:42.669Z,3.2
2022-11-10T13:13:52.194Z,3.2
2022-11-10T13:14:59.353Z,3.2
2022-11-10T13:16:07.955Z,3.4
2022-11-10T13:17:16.277Z,3.4
2022-11-10T13:18:24.753Z,3.4
2022-11-10T13:19:33.194Z,3.7
2022-11-10T13:20:41.548Z,3.7
2022-11-10T13:21:49.933Z,3.7
2022-11-10T13:22:58.476Z,3.6
2022-11-10T13:24:06.846Z,3.6
2022-11-10T13:25:15.198Z,3.6
2022-11-10T13:26:23.726Z,3.7
2022-11-10T13:27:32.051Z,3.7
2022-11-10T13:28:40.406Z,3.7
2022-11-10T13:29:48.948Z,3.8
2022-11-10T13:30:57.357Z,3.8
2022-11-10T13:32:05.671Z,3.8
2022-11-10T13:33:14.224Z,3.7
2022-11-10T13:34:22.599Z,3.7
2022-11-10T13:35:30.950Z,3.7
2022-11-10T13:36:39.546Z,3.3
2022-11-10T13:37:47.901Z,3.3
2022-11-10T13:38:56.266Z,3.3
2022-11-10T13:40:05.006Z,3.4
2022-11-10T13:41:13.177Z,3.4
2022-11-10T13:42:21.519Z,3.4
2022-11-10T13:43:30.090Z,3.5
2022-11-10T13:44:38.449Z,3.5
2022-11-10T13:45:46.840Z,3.5
2022-11-10T13:46:55.376Z,3.2
2022-11-10T13:48:03.721Z,3.2
2022-11-10T13:49:15.436Z,3.2
2022-11-10T13:50:20.649Z,3.5
2022-11-10T13:51:29.001Z,3.5
2022-11-10T13:52:37.336Z,3.5
2022-11-10T13:53:45.898Z,3.7
2022-11-10T13:54:54.260Z,3.7
2022-11-10T13:56:02.633Z,3.7
2022-11-10T13:57:11.166Z,2.8
2022-11-10T13:58:19.782Z,2.8
2022-11-10T13:59:27.851Z,2.8
2022-11-10T14:00:36.414Z,2.9
2022-11-10T14:01:44.770Z,2.9
2022-11-10T14:02:53.141Z,2.9
2022-11-10T14:04:01.997Z,3.4
2022-11-10T14:05:10.050Z,3.4
2022-11-10T14:06:18.399Z,3.4
2022-11-10T14:07:26.961Z,3.4
2022-11-10T14:08:35.338Z,3.4
2022-11-10T14:09:43.675Z,3.4
2022-11-10T14:10:52.241Z,3.2
2022-11-10T14:12:00.592Z,3.2
2022-11-10T14:13:08.963Z,3.2
2022-11-10T14:14:17.484Z,3.3
2022-11-10T14:15:25.850Z,3.3
2022-11-10T14:16:34.200Z,3.3
2022-11-10T14:17:42.754Z,3.2
2022-11-10T14:18:51.105Z,3.2
2022-11-10T14:19:59.449Z,3.2
2022-11-10T14:21:08.005Z,3.1
2022-11-10T14:22:16.348Z,3.1
2022-11-10T14:23:24.677Z,3.1
2022-11-10T14:24:33.259Z,3.8
2022-11-10T14:25:41.610Z,3.8
2022-11-10T14:26:49.950Z,3.8
2022-11-10T14:27:58.743Z,3.5
2022-11-10T14:29:06.833Z,3.5
2022-11-10T14:30:15.181Z,3.5
2022-11-10T15:03:17.421Z,0
2022-11-10T15:04:25.597Z,0
2022-11-10T15:05:33.985Z,0
2022-11-10T15:06:46.783Z,2.9
2022-11-10T15:07:50.917Z,2.9
2022-11-10T15:08:59.276Z,2.9
2022-11-10T15:10:07.861Z,3.4
2022-11-10T15:11:16.237Z,3.4
2022-11-10T15:12:24.603Z,3.4
2022-11-10T15:13:33.205Z,4
2022-11-10T15:14:41.570Z,4
2022-11-10T15:15:49.946Z,4
2022-11-10T15:16:58.616Z,4
2022-11-10T15:18:06.953Z,4
2022-11-10T15:19:15.475Z,4
2022-11-10T15:20:23.916Z,3.8
2022-11-10T15:21:32.280Z,3.8
2022-11-10T15:22:40.630Z,3.8
2022-11-10T15:23:49.207Z,9.1
2022-11-10T15:24:57.565Z,9.1
2022-11-10T15:26:05.940Z,9.1
2022-11-10T15:27:14.527Z,3.7
2022-11-10T15:28:23.218Z,3.7
2022-11-10T15:29:31.313Z,3.7
2022-11-10T15:30:39.852Z,3.9
2022-11-10T15:31:48.217Z,3.9
2022-11-10T15:33:01.016Z,3.9
2022-11-10T15:34:05.189Z,3.4
2022-11-10T15:35:13.685Z,3.4
2022-11-10T15:36:21.925Z,3.4
2022-11-10T15:37:31.306Z,3.7
2022-11-10T15:38:38.878Z,3.7
2022-11-10T15:39:47.296Z,3.7
2022-11-10T15:40:55.832Z,5
2022-11-10T15:42:04.182Z,5
2022-11-10T15:43:12.531Z,5
2022-11-10T15:44:21.161Z,4.1
2022-11-10T15:45:29.555Z,4.1
2022-11-10T15:46:37.918Z,4.1
2022-11-10T15:47:46.520Z,4.3
2022-11-10T15:48:54.876Z,4.3
2022-11-10T15:50:03.356Z,4.3
2022-11-10T15:51:11.969Z,3.9
2022-11-10T15:52:20.212Z,3.9
2022-11-10T15:53:28.559Z,3.9
2022-11-10T15:54:37.129Z,5.3
2022-11-10T15:55:45.502Z,5.3
2022-11-10T15:56:53.872Z,5.3
2022-11-10T15:58:02.436Z,5.1
2022-11-10T15:59:10.845Z,5.1
2022-11-10T16:00:19.231Z,5.1
2022-11-10T16:01:27.873Z,4.5
2022-11-10T16:02:36.185Z,4.5
2022-11-10T16:03:44.584Z,4.5
2022-11-10T16:04:57.129Z,5.9
2022-11-10T16:06:01.483Z,5.9
2022-11-10T16:07:10.016Z,5.9
2022-11-10T16:08:18.429Z,6.2
2022-11-10T16:09:26.826Z,6.2
2022-11-10T16:10:35.174Z,6.2
2022-11-10T16:11:43.757Z,5.6
2022-11-10T16:12:52.130Z,5.6
2022-11-10T16:14:00.480Z,5.6
2022-11-10T16:15:09.033Z,6.9
2022-11-10T16:16:17.406Z,6.9
2022-11-10T16:17:25.753Z,6.9
2022-11-10T16:18:34.330Z,6.9
2022-11-10T16:19:42.669Z,6.9